createdAt,value
2023-01-04T00:00:04.572Z,0.52
2023-01-04T00:02:31.719Z,0.70
2023-01-04T00:04:58.475Z,0.62
2023-01-04T00:07:25.190Z,0.76
2023-01-04T00:09:51.782Z,0.72
2023-01-04T00:12:18.493Z,0.76
2023-01-04T00:14:45.169Z,0.61
2023-01-04T00:17:11.828Z,0.78
2023-01-04T00:19:38.608Z,0.71
2023-01-04T00:22:05.103Z,0.89
2023-01-04T00:24:31.805Z,0.84
2023-01-04T00:26:58.419Z,0.65
2023-01-04T00:29:25.021Z,0.68
2023-01-04T00:31:52.078Z,0.49
2023-01-04T00:34:19.607Z,0.50
2023-01-04T00:36:46.569Z,0.58
2023-01-04T00:39:15.479Z,0.55
2023-01-04T00:42:03.144Z,0.34
2023-01-04T00:44:30.517Z,0.34
2023-01-04T00:46:59.355Z,0.09
2023-01-04T00:49:27.086Z,0.09
2023-01-04T00:51:53.706Z,-0.02
2023-01-04T00:54:20.911Z,-0.37
2023-01-04T00:56:47.889Z,-0.22
2023-01-04T00:59:15.995Z,-0.19
2023-01-04T01:01:43.696Z,0.04
2023-01-04T01:04:13.943Z,-0.01
2023-01-04T01:06:41.451Z,0.01
2023-01-04T01:09:08.402Z,0.18
2023-01-04T01:11:36.826Z,-0.03
2023-01-04T01:14:03.815Z,0.08
2023-01-04T01:19:17.447Z,-0.04
2023-01-04T01:21:43.968Z,-0.01
2023-01-04T01:24:16.435Z,-0.04
2023-01-04T01:26:43.144Z,-0.05
2023-01-04T01:29:09.849Z,-0.08
2023-01-04T01:31:37.053Z,-0.14
2023-01-04T01:34:05.355Z,-0.08
2023-01-04T01:36:31.992Z,-0.16
2023-01-04T01:38:59.249Z,0.09
2023-01-04T01:41:28.622Z,-0.12
2023-01-04T01:43:59.379Z,-0.03
2023-01-04T01:46:47.068Z,-0.20
2023-01-04T01:49:35.984Z,-0.09
2023-01-04T01:52:08.885Z,-0.09
2023-01-04T01:54:40.887Z,0.09
2023-01-04T01:57:11.127Z,-0.08
2023-01-04T01:59:42.404Z,0.06
2023-01-04T02:02:10.602Z,-0.05
2023-01-04T02:04:41.603Z,-0.00
2023-01-04T02:07:10.062Z,-0.05
2023-01-04T02:09:37.419Z,0.09
2023-01-04T02:12:04.432Z,-0.16
2023-01-04T02:14:31.423Z,0.03
2023-01-04T02:16:58.077Z,-0.08
2023-01-04T02:19:51.371Z,0.08
2023-01-04T02:22:43.329Z,-0.01
2023-01-04T02:25:35.072Z,0.37
2023-01-04T02:28:10.713Z,0.06
2023-01-04T02:31:07.255Z,-0.19
2023-01-04T02:34:00.597Z,0.10
2023-01-04T02:36:43.694Z,0.03
2023-01-04T02:39:35.149Z,-0.03
2023-01-04T02:42:12.606Z,-0.01
2023-01-04T02:44:53.783Z,0.03
2023-01-04T02:47:48.511Z,0.31
2023-01-04T02:50:33.553Z,-0.03
2023-01-04T02:53:18.573Z,-0.27
2023-01-04T02:55:51.034Z,-0.31
2023-01-04T02:59:12.188Z,-0.41
2023-01-04T03:02:17.841Z,-0.49
2023-01-04T03:05:24.757Z,-0.49
2023-01-04T03:08:45.636Z,-0.53
2023-01-04T03:11:34.702Z,-0.44
2023-01-04T03:14:31.991Z,-0.19
2023-01-04T03:17:04.671Z,-0.24
2023-01-04T03:19:51.602Z,-0.31
2023-01-04T03:22:55.278Z,-0.47
2023-01-04T03:25:47.670Z,-0.47
2023-01-04T03:28:36.813Z,-0.20
2023-01-04T03:31:33.906Z,-0.13
2023-01-04T03:34:19.342Z,-0.33
2023-01-04T03:36:56.765Z,-0.28
2023-01-04T03:40:24.735Z,-0.24
2023-01-04T03:43:42.495Z,-0.07
2023-01-04T03:46:46.631Z,-0.05
2023-01-04T03:49:13.280Z,0.00
2023-01-04T03:51:41.125Z,-0.06
2023-01-04T03:54:14.370Z,-0.33
2023-01-04T03:56:43.726Z,-0.30
2023-01-04T03:59:12.452Z,-0.30
2023-01-04T04:01:41.907Z,-0.31
2023-01-04T04:04:27.284Z,-0.26
2023-01-04T04:07:13.465Z,-0.18
2023-01-04T04:09:40.105Z,-0.12
2023-01-04T04:12:06.908Z,0.05
2023-01-04T04:14:33.738Z,-0.13
2023-01-04T04:17:00.344Z,-0.04
2023-01-04T04:19:27.098Z,-0.08
2023-01-04T04:21:53.686Z,-0.23
2023-01-04T04:24:24.764Z,-0.29
2023-01-04T04:26:54.367Z,-0.44
2023-01-04T04:29:21.604Z,-0.22
2023-01-04T04:31:48.272Z,-0.58
2023-01-04T04:34:14.908Z,-0.14
2023-01-04T04:36:41.594Z,-0.33
2023-01-04T04:39:08.214Z,-0.27
2023-01-04T04:41:41.671Z,-0.33
2023-01-04T04:44:21.962Z,-0.29
2023-01-04T04:46:49.144Z,-0.26
2023-01-04T04:49:16.716Z,-0.20
2023-01-04T04:51:44.310Z,-0.04
2023-01-04T04:54:14.658Z,-0.17
2023-01-04T04:56:41.566Z,-0.27
2023-01-04T04:59:08.047Z,-0.31
2023-01-04T05:01:35.020Z,-0.38
2023-01-04T05:04:01.935Z,-0.72
2023-01-04T05:06:29.065Z,-0.73
2023-01-04T05:08:55.736Z,-0.76
2023-01-04T05:11:42.525Z,-0.70
2023-01-04T05:14:09.965Z,-0.87
2023-01-04T05:16:36.688Z,-0.72
2023-01-04T05:19:04.124Z,-0.73
2023-01-04T05:21:30.755Z,-0.90
2023-01-04T05:23:57.473Z,-0.69
2023-01-04T05:26:24.169Z,-0.62
2023-01-04T05:28:53.974Z,-0.58
2023-01-04T05:31:21.524Z,-0.62
2023-01-04T05:33:48.428Z,-0.45
2023-01-04T05:36:15.033Z,-0.56
2023-01-04T05:38:41.709Z,-0.61
2023-01-04T05:41:28.461Z,-0.62
2023-01-04T05:43:55.463Z,-0.61
2023-01-04T05:46:22.552Z,-0.90
2023-01-04T05:48:49.254Z,-0.96
2023-01-04T05:51:16.121Z,-0.87
2023-01-04T05:53:42.770Z,-0.99
2023-01-04T05:56:09.551Z,-0.78
2023-01-04T05:58:36.399Z,-0.76
2023-01-04T06:01:03.138Z,-0.92
2023-01-04T06:03:29.887Z,-0.90
2023-01-04T06:05:56.652Z,-0.78
2023-01-04T06:08:23.406Z,-0.71
2023-01-04T06:10:54.450Z,-0.71
2023-01-04T06:13:21.465Z,-0.96
2023-01-04T06:15:48.303Z,-0.96
2023-01-04T06:18:16.225Z,-1.01
2023-01-04T06:20:43.776Z,-1.04
2023-01-04T06:23:11.022Z,-1.05
2023-01-04T06:25:38.057Z,-1.11
2023-01-04T06:28:04.741Z,-0.58
2023-01-04T06:30:31.813Z,-0.93
2023-01-04T06:32:58.659Z,-1.01
2023-01-04T06:35:25.602Z,-0.88
2023-01-04T06:37:52.535Z,-1.00
2023-01-04T06:40:19.165Z,-1.15
2023-01-04T06:42:46.075Z,-1.25
2023-01-04T06:45:14.867Z,-1.20
2023-01-04T06:47:42.143Z,-1.18
2023-01-04T06:50:09.967Z,-1.18
2023-01-04T06:52:36.826Z,-1.28
2023-01-04T06:55:03.544Z,-1.16
2023-01-04T06:57:30.859Z,-1.38
2023-01-04T06:59:58.166Z,-1.21
2023-01-04T07:02:25.433Z,-1.06
2023-01-04T07:04:52.390Z,-1.03
2023-01-04T07:07:19.002Z,-1.24
2023-01-04T07:09:45.981Z,-1.14
2023-01-04T07:12:12.780Z,-0.98
2023-01-04T07:14:41.466Z,-0.98
2023-01-04T07:17:08.307Z,-0.71
2023-01-04T07:19:34.963Z,-0.62
2023-01-04T07:22:02.031Z,-0.89
2023-01-04T07:24:30.542Z,-0.83
2023-01-04T07:26:59.960Z,-0.82
2023-01-04T07:29:27.034Z,-0.84
2023-01-04T07:31:53.885Z,-0.78
2023-01-04T07:34:24.560Z,-0.90
2023-01-04T07:36:52.492Z,-0.87
2023-01-04T07:39:20.385Z,-0.88
2023-01-04T07:41:48.788Z,-0.87
2023-01-04T07:44:18.796Z,-0.71
2023-01-04T07:46:45.693Z,-0.49
2023-01-04T07:49:17.875Z,-0.06
2023-01-04T07:51:46.993Z,-0.24
2023-01-04T07:54:15.035Z,0.07
2023-01-04T07:56:41.742Z,-0.13
2023-01-04T07:59:09.234Z,0.01
2023-01-04T08:01:38.499Z,0.33
2023-01-04T08:04:06.978Z,0.17
2023-01-04T08:06:34.667Z,0.57
2023-01-04T08:09:02.229Z,0.61
2023-01-04T08:11:28.980Z,0.53
2023-01-04T08:13:55.634Z,0.46
2023-01-04T08:16:31.875Z,0.46
2023-01-04T08:19:00.916Z,0.65
2023-01-04T08:21:35.467Z,1.10
2023-01-04T08:24:02.569Z,0.49
2023-01-04T08:26:29.520Z,0.61
2023-01-04T08:28:56.681Z,1.30
2023-01-04T08:31:29.839Z,0.57
2023-01-04T08:33:57.567Z,0.95
2023-01-04T08:36:28.072Z,0.69
2023-01-04T08:39:00.862Z,0.97
2023-01-04T08:44:15.382Z,0.73
2023-01-04T08:46:42.116Z,0.80
2023-01-04T08:49:08.787Z,0.87
2023-01-04T08:51:35.701Z,0.94
2023-01-04T08:54:02.519Z,0.86
2023-01-04T08:56:29.299Z,1.03
2023-01-04T08:58:55.957Z,1.00
2023-01-04T09:01:22.804Z,0.92
2023-01-04T09:03:49.529Z,0.69
2023-01-04T09:06:17.215Z,0.73
2023-01-04T09:08:44.496Z,0.65
2023-01-04T09:11:20.086Z,1.02
2023-01-04T09:13:47.478Z,1.12
2023-01-04T09:16:19.764Z,1.23
2023-01-04T09:18:49.040Z,1.27
2023-01-04T09:21:21.515Z,1.38
2023-01-04T09:23:49.022Z,1.52
2023-01-04T09:26:23.862Z,1.65
2023-01-04T09:28:54.853Z,1.89
2023-01-04T09:31:24.743Z,1.66
2023-01-04T09:36:39.336Z,2.08
2023-01-04T09:39:06.148Z,2.13
2023-01-04T09:41:44.683Z,2.37
2023-01-04T09:44:16.365Z,2.13
2023-01-04T09:47:06.131Z,2.24
2023-01-04T09:49:37.870Z,2.52
2023-01-04T09:52:10.754Z,2.54
2023-01-04T09:54:50.024Z,2.25
2023-01-04T09:57:35.689Z,2.73
2023-01-04T10:00:31.378Z,2.57
2023-01-04T10:03:05.541Z,2.67
2023-01-04T10:05:33.339Z,2.78
2023-01-04T10:08:01.483Z,2.72
2023-01-04T10:10:46.593Z,2.94
2023-01-04T10:13:42.803Z,2.89
2023-01-04T10:16:44.214Z,2.72
2023-01-04T10:22:48.811Z,2.86
2023-01-04T10:25:15.340Z,2.73
2023-01-04T10:28:18.912Z,2.76
2023-01-04T10:30:57.773Z,2.56
2023-01-04T10:33:47.282Z,2.87
2023-01-04T10:36:28.820Z,2.99
2023-01-04T10:39:00.634Z,3.28
2023-01-04T10:41:33.475Z,3.01
2023-01-04T10:44:14.437Z,3.19
2023-01-04T10:47:02.783Z,3.32
2023-01-04T10:49:41.880Z,3.12
2023-01-04T10:52:23.528Z,3.08
2023-01-04T10:54:54.858Z,3.30
2023-01-04T10:57:30.749Z,3.53
2023-01-04T11:00:13.478Z,3.69
2023-01-04T11:02:49.906Z,3.52
2023-01-04T11:05:16.683Z,3.58
2023-01-04T11:07:46.046Z,3.62
2023-01-04T11:10:24.206Z,3.60
2023-01-04T11:12:51.037Z,3.32
2023-01-04T11:15:17.811Z,3.68
2023-01-04T11:17:45.796Z,3.74
2023-01-04T11:20:12.703Z,3.97
2023-01-04T11:22:42.356Z,3.89
2023-01-04T11:28:14.119Z,3.98
2023-01-04T11:31:12.432Z,4.02
2023-01-04T11:33:54.315Z,3.76
2023-01-04T11:36:43.773Z,3.97
2023-01-04T11:39:24.556Z,4.03
2023-01-04T11:42:02.528Z,4.03
2023-01-04T11:44:34.797Z,4.10
2023-01-04T11:47:08.090Z,4.04
2023-01-04T11:49:36.697Z,3.94
2023-01-04T11:52:04.882Z,4.15
2023-01-04T11:54:31.504Z,4.03
2023-01-04T11:57:12.226Z,4.35
2023-01-04T11:59:39.142Z,4.27
2023-01-04T12:02:50.513Z,3.87
2023-01-04T12:05:28.146Z,4.27
2023-01-04T12:07:56.323Z,3.95
2023-01-04T12:10:27.140Z,3.99
2023-01-04T12:12:56.636Z,4.29
2023-01-04T12:16:01.914Z,4.37
2023-01-04T12:18:34.720Z,4.64
2023-01-04T12:21:03.048Z,4.37
2023-01-04T12:23:30.092Z,4.19
2023-01-04T12:25:57.229Z,4.26
2023-01-04T12:28:38.949Z,4.48
2023-01-04T12:31:21.657Z,4.46
2023-01-04T12:33:49.924Z,4.42
2023-01-04T12:36:19.313Z,4.49
2023-01-04T12:38:52.331Z,4.91
2023-01-04T12:41:20.504Z,4.88
2023-01-04T12:43:49.847Z,4.88
2023-01-04T12:46:47.689Z,4.87
2023-01-04T12:49:26.481Z,4.90
2023-01-04T12:52:55.215Z,4.88
2023-01-04T12:54:58.642Z,4.41
2023-01-04T12:57:37.301Z,4.69
2023-01-04T13:00:14.136Z,4.50
2023-01-04T13:03:17.382Z,4.46
2023-01-04T13:05:58.159Z,4.43
2023-01-04T13:08:25.677Z,4.36
2023-01-04T13:10:56.759Z,4.33
2023-01-04T13:13:37.232Z,4.34
2023-01-04T13:16:50.741Z,4.22
2023-01-04T13:19:23.678Z,4.66
2023-01-04T13:21:52.803Z,4.83
2023-01-04T13:24:31.253Z,4.71
2023-01-04T13:27:07.466Z,5.02
2023-01-04T13:29:36.035Z,5.03
2023-01-04T13:32:16.140Z,4.71
2023-01-04T13:34:56.504Z,4.82
2023-01-04T13:37:28.337Z,4.88
2023-01-04T13:40:22.084Z,5.20
2023-01-04T13:42:56.485Z,5.07
2023-01-04T13:45:43.563Z,5.52
2023-01-04T13:48:14.836Z,5.20
2023-01-04T13:50:57.637Z,5.49
2023-01-04T13:53:26.793Z,5.38
2023-01-04T13:55:55.755Z,5.11
2023-01-04T13:58:28.702Z,5.11
2023-01-04T14:01:02.383Z,4.97
2023-01-04T14:03:49.526Z,4.91
2023-01-04T14:06:18.808Z,4.95
2023-01-04T14:09:14.276Z,4.95
2023-01-04T14:12:09.143Z,5.14
2023-01-04T14:14:45.356Z,5.15
2023-01-04T14:17:26.502Z,5.18
2023-01-04T14:20:26.389Z,5.17
2023-01-04T14:22:56.253Z,5.55
2023-01-04T14:25:41.968Z,5.34
2023-01-04T14:28:30.284Z,5.42
2023-01-04T14:31:00.251Z,5.31
2023-01-04T14:33:36.773Z,5.24
2023-01-04T14:36:06.269Z,5.48
2023-01-04T14:38:36.147Z,5.13
2023-01-04T14:41:18.044Z,5.20
2023-01-04T14:43:53.398Z,5.29
2023-01-04T14:46:22.051Z,5.13
2023-01-04T14:48:49.168Z,5.35
2023-01-04T14:51:19.347Z,5.24
2023-01-04T14:53:46.616Z,5.34
2023-01-04T14:56:15.838Z,5.06
2023-01-04T14:58:43.285Z,5.08
2023-01-04T15:01:11.274Z,5.42
2023-01-04T15:03:38.353Z,5.39
2023-01-04T15:06:06.069Z,5.42
2023-01-04T15:08:33.520Z,5.62
2023-01-04T15:11:00.562Z,5.26
2023-01-04T15:13:28.510Z,5.32
2023-01-04T15:15:58.055Z,5.51
2023-01-04T15:18:24.762Z,5.17
2023-01-04T15:20:52.298Z,5.26
2023-01-04T15:23:18.981Z,5.28
2023-01-04T15:25:45.970Z,5.26
2023-01-04T15:28:13.602Z,5.06
2023-01-04T15:30:44.120Z,5.33
2023-01-04T15:33:10.812Z,5.24
2023-01-04T15:35:37.288Z,5.21
2023-01-04T15:38:06.598Z,5.14
2023-01-04T15:40:35.864Z,5.46
2023-01-04T15:43:03.385Z,5.59
2023-01-04T15:45:29.943Z,5.66
2023-01-04T15:48:02.986Z,5.34
2023-01-04T15:50:31.362Z,5.76
2023-01-04T15:52:58.093Z,5.86
2023-01-04T15:55:26.119Z,5.85
2023-01-04T15:57:54.345Z,5.94
2023-01-04T16:00:21.253Z,5.92
2023-01-04T16:02:48.041Z,5.91
2023-01-04T16:05:16.581Z,6.04
2023-01-04T16:07:44.404Z,5.86
2023-01-04T16:10:11.227Z,5.83
2023-01-04T16:12:44.652Z,6.08
2023-01-04T16:15:16.122Z,6.00
2023-01-04T16:17:44.679Z,5.93
2023-01-04T16:20:15.408Z,5.73
2023-01-04T16:22:42.623Z,5.72
2023-01-04T16:25:11.652Z,5.89
2023-01-04T16:27:39.136Z,5.89
2023-01-04T16:30:09.215Z,5.97
2023-01-04T16:32:36.590Z,6.04
2023-01-04T16:35:04.126Z,6.12
2023-01-04T16:37:30.903Z,6.07
2023-01-04T16:40:09.783Z,6.21
2023-01-04T16:42:37.915Z,6.33
2023-01-04T16:45:06.948Z,6.37
2023-01-04T16:47:40.770Z,6.03
2023-01-04T16:50:08.014Z,6.32
2023-01-04T16:52:34.696Z,6.27
2023-01-04T16:55:01.399Z,6.16
2023-01-04T16:57:28.191Z,6.22
2023-01-04T16:59:55.114Z,6.16
2023-01-04T17:02:23.253Z,6.11
2023-01-04T17:04:55.413Z,6.11
2023-01-04T17:07:22.808Z,6.06
2023-01-04T17:09:50.041Z,6.08
2023-01-04T17:12:46.436Z,6.16
2023-01-04T17:17:50.501Z,6.16
2023-01-04T17:20:17.328Z,6.05
2023-01-04T17:22:43.983Z,6.31
2023-01-04T17:25:10.917Z,6.22
2023-01-04T17:27:37.719Z,6.29
2023-01-04T17:30:05.319Z,6.33
2023-01-04T17:32:32.396Z,6.16
2023-01-04T17:34:59.194Z,6.27
2023-01-04T17:37:27.037Z,6.14
2023-01-04T17:39:54.413Z,6.39
2023-01-04T17:42:23.084Z,6.06
2023-01-04T17:44:50.224Z,6.31
2023-01-04T17:47:16.992Z,6.37
2023-01-04T17:49:43.755Z,6.27
2023-01-04T17:52:13.695Z,6.60
2023-01-04T17:54:43.273Z,6.35
2023-01-04T17:57:10.180Z,6.47
2023-01-04T17:59:36.945Z,6.32
2023-01-04T18:02:03.631Z,6.53
2023-01-04T18:04:30.713Z,6.34
2023-01-04T18:06:57.672Z,6.49
2023-01-04T18:09:25.588Z,6.36
2023-01-04T18:11:52.563Z,6.44
2023-01-04T18:14:19.623Z,6.59
2023-01-04T18:16:58.989Z,6.38
2023-01-04T18:19:28.798Z,6.44
2023-01-04T18:21:56.443Z,6.54
2023-01-04T18:24:39.603Z,6.25
2023-01-04T18:27:27.688Z,6.36
2023-01-04T18:29:56.357Z,6.49
2023-01-04T18:32:25.211Z,6.58
2023-01-04T18:34:52.432Z,6.51
2023-01-04T18:37:19.497Z,6.56
2023-01-04T18:39:47.522Z,6.69
2023-01-04T18:42:14.346Z,6.33
2023-01-04T18:44:45.990Z,6.57
2023-01-04T18:47:17.192Z,6.59
2023-01-04T18:49:43.901Z,6.53
2023-01-04T18:52:10.594Z,6.53
2023-01-04T18:54:38.157Z,6.52
2023-01-04T18:57:05.404Z,6.48
2023-01-04T18:59:32.844Z,6.62
2023-01-04T19:02:03.276Z,6.65
2023-01-04T19:04:33.208Z,6.47
2023-01-04T19:07:01.006Z,6.50
2023-01-04T19:09:28.025Z,6.23
2023-01-04T19:11:54.713Z,6.76
2023-01-04T19:14:21.714Z,6.52
2023-01-04T19:16:48.591Z,6.42
2023-01-04T19:19:15.396Z,6.46
2023-01-04T19:21:42.384Z,6.33
2023-01-04T19:24:09.499Z,6.67
2023-01-04T19:26:36.349Z,6.51
2023-01-04T19:29:05.107Z,6.58
2023-01-04T19:31:32.271Z,6.47
2023-01-04T19:33:58.905Z,6.62
2023-01-04T19:36:25.612Z,6.56
2023-01-04T19:38:54.311Z,6.41
2023-01-04T19:41:31.055Z,6.51
2023-01-04T19:44:02.897Z,6.54
2023-01-04T19:46:30.493Z,6.62
2023-01-04T19:48:57.964Z,6.61
2023-01-04T19:51:24.766Z,6.51
2023-01-04T19:53:51.854Z,6.44
2023-01-04T19:56:19.044Z,6.57
2023-01-04T19:58:46.156Z,6.38
2023-01-04T20:01:19.308Z,6.80
2023-01-04T20:03:46.691Z,6.65
2023-01-04T20:06:14.515Z,6.47
2023-01-04T20:08:41.592Z,6.36
2023-01-04T20:11:12.375Z,6.46
2023-01-04T20:13:40.339Z,6.61
2023-01-04T20:16:08.222Z,6.62
2023-01-04T20:18:35.826Z,6.72
2023-01-04T20:21:07.748Z,6.90
2023-01-04T20:23:34.481Z,6.70
2023-01-04T20:26:11.654Z,6.79
2023-01-04T20:28:39.301Z,6.96
2023-01-04T20:31:09.022Z,6.67
2023-01-04T20:33:36.615Z,6.79
2023-01-04T20:36:17.737Z,6.68
2023-01-04T20:38:47.151Z,6.84
2023-01-04T20:41:16.904Z,6.66
2023-01-04T20:43:45.051Z,6.80
2023-01-04T20:46:16.977Z,6.60
2023-01-04T20:48:44.204Z,6.69
2023-01-04T20:51:15.420Z,6.95
2023-01-04T20:53:42.444Z,6.65
2023-01-04T20:56:14.008Z,6.62
2023-01-04T20:58:40.852Z,6.86
2023-01-04T21:01:09.124Z,6.85
2023-01-04T21:03:36.772Z,6.88
2023-01-04T21:06:06.654Z,7.04
2023-01-04T21:08:34.913Z,7.25
2023-01-04T21:11:01.682Z,7.13
2023-01-04T21:13:28.380Z,7.12
2023-01-04T21:15:56.342Z,7.07
2023-01-04T21:18:24.208Z,6.83
2023-01-04T21:20:51.864Z,7.20
2023-01-04T21:23:21.213Z,6.84
2023-01-04T21:25:50.080Z,7.11
2023-01-04T21:28:19.166Z,6.83
2023-01-04T21:30:46.561Z,7.01
2023-01-04T21:33:15.476Z,6.70
2023-01-04T21:35:42.935Z,6.77
2023-01-04T21:38:11.412Z,6.91
2023-01-04T21:40:40.369Z,6.92
2023-01-04T21:43:08.260Z,6.77
2023-01-04T21:45:39.824Z,7.03
2023-01-04T21:48:06.949Z,6.90
2023-01-04T21:50:33.714Z,6.87
2023-01-04T21:53:00.466Z,6.93
2023-01-04T21:55:32.417Z,7.11
2023-01-04T21:58:01.028Z,7.00
2023-01-04T22:00:27.656Z,7.14
2023-01-04T22:02:54.380Z,7.25
2023-01-04T22:05:21.131Z,6.96
2023-01-04T22:07:47.847Z,7.16
2023-01-04T22:10:14.663Z,7.20
2023-01-04T22:12:41.967Z,7.42
2023-01-04T22:15:08.998Z,7.02
2023-01-04T22:17:35.663Z,7.27
2023-01-04T22:20:02.239Z,7.26
2023-01-04T22:22:29.911Z,7.23
2023-01-04T22:24:57.492Z,7.28
2023-01-04T22:27:24.239Z,7.63
2023-01-04T22:29:50.832Z,7.23
2023-01-04T22:32:17.497Z,7.03
2023-01-04T22:34:44.121Z,7.46
2023-01-04T22:37:10.851Z,7.55
2023-01-04T22:39:37.595Z,7.43
2023-01-04T22:42:04.345Z,7.47
2023-01-04T22:44:31.381Z,7.43
2023-01-04T22:46:58.222Z,7.27
2023-01-04T22:49:24.861Z,7.37
2023-01-04T22:51:54.148Z,7.25
2023-01-04T22:54:20.833Z,7.20
2023-01-04T22:56:47.532Z,7.44
2023-01-04T22:59:14.228Z,7.47
2023-01-04T23:01:41.820Z,7.23
2023-01-04T23:04:08.937Z,7.31
2023-01-04T23:06:35.598Z,7.24
2023-01-04T23:09:05.571Z,7.18
2023-01-04T23:11:33.696Z,7.42
2023-01-04T23:14:04.481Z,7.72
2023-01-04T23:16:33.198Z,7.65
2023-01-04T23:19:04.233Z,7.21
2023-01-04T23:21:32.219Z,7.29
2023-01-04T23:23:59.904Z,7.56
2023-01-04T23:26:28.683Z,7.47
2023-01-04T23:28:56.261Z,7.22
2023-01-04T23:31:25.265Z,7.22
2023-01-04T23:33:56.339Z,7.26
2023-01-04T23:36:28.269Z,7.30
2023-01-04T23:38:57.187Z,7.29
2023-01-04T23:41:44.352Z,7.51
2023-01-04T23:44:17.339Z,7.35
2023-01-04T23:46:45.703Z,7.32
2023-01-04T23:49:13.092Z,7.28
2023-01-04T23:51:39.971Z,7.24
2023-01-04T23:54:06.818Z,7.39
2023-01-04T23:56:33.486Z,7.22
2023-01-04T23:59:00.232Z,7.41
